Time;durP1;ratioP1;P1;durP2;ratioP2;P2;SDS_P1;SDS_P2;PMS_P1;PMS_P2;Temp;Humidity;BMP_temperature;BMP_pressure;BME280_temperature;BME280_humidity;BME280_pressure;Samples;Min_cycle;Max_cycle;Signal;HPM_P1;HPM_P2
2021/11/03 00:00:14;;;;;;;11.85;4.90;;;7.70;99.90;;;;;;5031582;28;20032;-54
2021/11/03 00:02:41;;;;;;;6.85;4.75;;;7.70;99.90;;;;;;5031828;28;20118;-51
2021/11/03 00:05:09;;;;;;;6.70;4.40;;;7.70;99.90;;;;;;5030099;28;20033;-54
2021/11/03 00:07:35;;;;;;;7.13;4.53;;;7.70;99.90;;;;;;4991848;28;20049;-54
2021/11/03 00:10:05;;;;;;;9.25;5.75;;;7.60;99.90;;;;;;5046147;22;20067;-49
2021/11/03 00:12:31;;;;;;;8.85;5.10;;;7.60;99.90;;;;;;5030548;28;20184;-49
2021/11/03 00:14:58;;;;;;;7.55;5.03;;;7.60;99.90;;;;;;5031260;28;20034;-48
2021/11/03 00:17:24;;;;;;;8.60;5.18;;;7.60;99.90;;;;;;5029356;28;20059;-52
2021/11/03 00:19:49;;;;;;;7.38;4.95;;;7.60;99.90;;;;;;5028998;28;20427;-49
2021/11/03 00:22:15;;;;;;;9.13;5.22;;;7.60;99.90;;;;;;5019019;28;20034;-48
2021/11/03 00:24:42;;;;;;;8.82;5.03;;;7.60;99.90;;;;;;5007954;28;20042;-49
2021/11/03 00:27:08;;;;;;;7.75;5.32;;;7.60;99.90;;;;;;5014929;28;20060;-48
2021/11/03 00:29:33;;;;;;;12.02;5.75;;;7.60;99.90;;;;;;5016376;28;20038;-49
2021/11/03 00:31:59;;;;;;;9.52;6.13;;;7.60;99.90;;;;;;5006455;28;20045;-50
2021/11/03 00:34:24;;;;;;;11.18;6.72;;;7.60;99.90;;;;;;5009003;28;20109;-47
2021/11/03 00:36:50;;;;;;;13.95;6.93;;;7.60;99.90;;;;;;5016441;28;20559;-49
2021/11/03 00:39:16;;;;;;;10.15;6.75;;;7.60;99.90;;;;;;5007657;28;20064;-52
2021/11/03 00:41:41;;;;;;;11.35;7.30;;;7.60;99.90;;;;;;5011327;28;20037;-48
2021/11/03 00:44:07;;;;;;;12.50;6.97;;;7.60;99.90;;;;;;5015205;28;20033;-48
2021/11/03 00:46:33;;;;;;;13.20;7.53;;;7.60;99.90;;;;;;5007864;28;20116;-51
2021/11/03 00:48:58;;;;;;;12.93;7.90;;;7.60;99.90;;;;;;5010942;28;20061;-50
2021/11/03 00:51:24;;;;;;;12.10;7.97;;;7.60;99.90;;;;;;5013519;28;20042;-51
2021/11/03 00:53:50;;;;;;;13.63;7.88;;;7.50;99.90;;;;;;5019608;28;20545;-52
2021/11/03 00:56:16;;;;;;;12.98;7.93;;;7.60;99.90;;;;;;5019104;28;20073;-50
2021/11/03 00:58:41;;;;;;;14.93;8.90;;;7.60;99.90;;;;;;5013756;28;20478;-49
2021/11/03 01:01:07;;;;;;;13.55;8.15;;;7.50;99.90;;;;;;5018257;28;20055;-50
2021/11/03 01:03:33;;;;;;;14.32;8.77;;;7.50;99.90;;;;;;5012823;28;20082;-47
2021/11/03 01:05:58;;;;;;;14.85;9.07;;;7.60;99.90;;;;;;5026150;28;20493;-52
2021/11/03 01:08:24;;;;;;;15.07;9.07;;;7.50;99.90;;;;;;5009672;28;20050;-50
2021/11/03 01:10:52;;;;;;;13.95;9.05;;;7.50;99.90;;;;;;5021526;28;20052;-49
2021/11/03 01:13:19;;;;;;;13.68;8.85;;;7.50;99.90;;;;;;5019539;28;20490;-49
2021/11/03 01:15:46;;;;;;;15.07;9.55;;;7.40;99.90;;;;;;5010667;28;20056;-52
2021/11/03 01:18:12;;;;;;;14.93;9.02;;;7.40;99.90;;;;;;5020343;28;20069;-48
2021/11/03 01:20:38;;;;;;;14.40;9.23;;;7.40;99.90;;;;;;5009131;28;20439;-48
2021/11/03 01:23:05;;;;;;;14.15;9.30;;;7.40;99.90;;;;;;5017930;28;20037;-48
2021/11/03 01:25:31;;;;;;;15.20;8.82;;;7.40;99.90;;;;;;5014567;28;20033;-49
2021/11/03 01:27:57;;;;;;;15.00;9.77;;;7.30;99.90;;;;;;5019689;28;20049;-49
2021/11/03 01:30:24;;;;;;;15.65;8.98;;;7.30;99.90;;;;;;5007179;28;20046;-50
2021/11/03 01:32:51;;;;;;;13.50;9.13;;;7.30;99.90;;;;;;5012813;28;20041;-51
2021/11/03 01:35:17;;;;;;;13.82;8.82;;;7.30;99.90;;;;;;5023603;28;20038;-48
2021/11/03 01:37:43;;;;;;;16.73;10.15;;;7.20;99.90;;;;;;5010902;28;20113;-51
2021/11/03 01:40:13;;;;;;;16.52;10.68;;;7.20;99.90;;;;;;4992771;28;20048;-49
2021/11/03 01:42:38;;;;;;;20.10;10.80;;;7.20;99.90;;;;;;5014258;28;20493;-48
2021/11/03 01:45:07;;;;;;;15.90;9.95;;;7.10;99.90;;;;;;5015177;28;20044;-50
2021/11/03 01:47:43;;;;;;;14.93;9.75;;;7.10;99.90;;;;;;5015104;28;20469;-49
2021/11/03 01:50:30;;;;;;;16.88;9.52;;;7.00;99.90;;;;;;5001234;28;20556;-48
2021/11/03 01:53:18;;;;;;;15.82;9.93;;;7.00;99.90;;;;;;5017912;28;20493;-48
2021/11/03 01:56:09;;;;;;;13.93;9.40;;;7.00;99.90;;;;;;5017647;28;20046;-47
2021/11/03 01:58:49;;;;;;;15.82;9.98;;;6.90;99.90;;;;;;5013306;28;20045;-47
2021/11/03 02:01:16;;;;;;;13.45;9.40;;;6.90;99.90;;;;;;5018849;28;20402;-47
2021/11/03 02:03:42;;;;;;;13.45;9.48;;;6.90;99.90;;;;;;5011665;28;20045;-48
2021/11/03 02:06:16;;;;;;;14.88;9.43;;;6.90;99.90;;;;;;5010372;28;20045;-48
2021/11/03 02:08:43;;;;;;;16.48;9.57;;;6.80;99.90;;;;;;5020334;28;20042;-47
2021/11/03 02:11:10;;;;;;;15.82;10.65;;;6.80;99.90;;;;;;5018782;28;20528;-50
2021/11/03 02:13:37;;;;;;;16.77;10.43;;;6.80;99.90;;;;;;5013449;28;20126;-48
2021/11/03 02:16:04;;;;;;;15.55;10.90;;;6.70;99.90;;;;;;5019267;28;20033;-48
2021/11/03 02:18:32;;;;;;;19.48;11.20;;;6.70;99.90;;;;;;5022935;28;20124;-50
2021/11/03 02:20:58;;;;;;;17.25;11.45;;;6.70;99.90;;;;;;5015525;28;20555;-48
2021/11/03 02:23:56;;;;;;;19.48;12.05;;;6.70;99.90;;;;;;5021562;28;20061;-51
2021/11/03 02:26:27;;;;;;;17.27;10.73;;;6.60;99.90;;;;;;5000467;28;20568;-49
2021/11/03 02:28:52;;;;;;;15.20;10.57;;;6.60;99.90;;;;;;5010292;28;20037;-49
2021/11/03 02:31:27;;;;;;;13.75;9.57;;;6.60;99.90;;;;;;5017683;28;20035;-50
2021/11/03 02:33:53;;;;;;;15.45;10.32;;;6.50;99.90;;;;;;5009507;28;20037;-49
2021/11/03 02:36:18;;;;;;;16.40;10.50;;;6.60;99.90;;;;;;5017975;28;20045;-48
2021/11/03 02:38:44;;;;;;;16.55;11.23;;;6.60;99.90;;;;;;5019968;28;20071;-48
2021/11/03 02:41:26;;;;;;;18.52;11.35;;;6.50;99.90;;;;;;5018159;28;20482;-48
2021/11/03 02:44:04;;;;;;;19.37;11.10;;;6.60;99.90;;;;;;5016743;28;20069;-48
2021/11/03 02:46:30;;;;;;;16.85;11.25;;;6.50;99.90;;;;;;5028062;28;20053;-46
2021/11/03 02:48:55;;;;;;;20.90;11.73;;;6.50;99.90;;;;;;5021073;28;20145;-48
2021/11/03 02:51:35;;;;;;;20.38;12.45;;;6.50;99.90;;;;;;5012571;28;20038;-48
2021/11/03 02:54:04;;;;;;;21.17;11.70;;;6.40;99.90;;;;;;5017792;28;20454;-47
2021/11/03 02:56:33;;;;;;;19.77;12.02;;;6.50;99.90;;;;;;5021553;28;20080;-48
2021/11/03 02:58:59;;;;;;;18.73;12.32;;;6.50;99.90;;;;;;5010083;28;20556;-47
2021/11/03 03:01:44;;;;;;;19.85;12.32;;;6.40;99.90;;;;;;5010883;28;20077;-52
2021/11/03 03:04:14;;;;;;;20.10;12.98;;;6.40;99.90;;;;;;5015992;28;20049;-50
2021/11/03 03:06:40;;;;;;;17.80;12.85;;;6.40;99.90;;;;;;5018894;28;20025;-48
2021/11/03 03:09:07;;;;;;;20.27;12.50;;;6.40;99.90;;;;;;5014645;28;20105;-51
2021/11/03 03:11:34;;;;;;;17.15;11.68;;;6.50;99.90;;;;;;5027206;28;20116;-49
2021/11/03 03:14:01;;;;;;;20.67;12.02;;;6.40;99.90;;;;;;5013037;28;20038;-50
2021/11/03 03:16:27;;;;;;;19.23;12.70;;;6.50;99.90;;;;;;5027957;28;20044;-50
2021/11/03 03:18:52;;;;;;;23.73;12.45;;;6.40;99.90;;;;;;4991929;28;20041;-50
2021/11/03 03:21:23;;;;;;;21.88;13.82;;;6.40;99.90;;;;;;5013549;28;20049;-51
2021/11/03 03:23:49;;;;;;;21.70;14.25;;;6.50;99.90;;;;;;5021051;28;20037;-51
2021/11/03 03:26:16;;;;;;;22.52;14.93;;;6.40;99.90;;;;;;5020354;28;20037;-49
2021/11/03 03:28:43;;;;;;;20.30;13.70;;;6.40;99.90;;;;;;5018657;28;20053;-52
2021/11/03 03:31:10;;;;;;;24.75;14.57;;;6.40;99.90;;;;;;5021502;28;20052;-52
2021/11/03 03:33:36;;;;;;;21.40;14.98;;;6.30;99.90;;;;;;5008876;28;20116;-51
2021/11/03 03:36:03;;;;;;;22.73;16.05;;;6.40;99.90;;;;;;5018770;28;20057;-48
2021/11/03 03:38:28;;;;;;;26.52;16.63;;;6.40;99.90;;;;;;5020713;28;20543;-49
2021/11/03 03:40:54;;;;;;;25.98;17.05;;;6.30;99.90;;;;;;5012859;28;20030;-48
2021/11/03 03:43:19;;;;;;;27.17;17.02;;;6.30;99.90;;;;;;5012188;28;20041;-49
2021/11/03 03:45:45;;;;;;;32.97;19.63;;;6.30;99.90;;;;;;5018196;28;20050;-48
2021/11/03 03:48:11;;;;;;;33.33;20.30;;;6.30;99.90;;;;;;5007664;28;20041;-47
2021/11/03 03:50:37;;;;;;;36.17;21.98;;;6.30;99.90;;;;;;5015850;28;20041;-49
2021/11/03 03:53:03;;;;;;;39.63;22.70;;;6.30;99.90;;;;;;5008765;28;20124;-48
2021/11/03 03:55:29;;;;;;;40.33;23.10;;;6.30;99.90;;;;;;5009587;28;20513;-51
2021/11/03 03:57:55;;;;;;;38.00;23.25;;;6.30;99.90;;;;;;5015667;28;20034;-47
2021/11/03 04:00:22;;;;;;;70.65;25.55;;;6.30;99.90;;;;;;5012724;28;20044;-48
2021/11/03 04:02:50;;;;;;;62.20;26.55;;;6.30;99.90;;;;;;5017644;28;20046;-47
2021/11/03 04:05:16;;;;;;;69.00;27.70;;;6.30;99.90;;;;;;5012666;28;20061;-46
2021/11/03 04:07:42;;;;;;;86.32;27.83;;;6.30;99.90;;;;;;5007919;28;20040;-48
2021/11/03 04:10:08;;;;;;;162.88;28.17;;;6.30;99.90;;;;;;5018012;28;20033;-47
2021/11/03 04:12:34;;;;;;;145.40;28.90;;;6.30;99.90;;;;;;5016811;28;20038;-48
2021/11/03 04:15:00;;;;;;;198.13;31.60;;;6.30;99.90;;;;;;5022709;28;20044;-48
2021/11/03 04:17:26;;;;;;;134.93;27.95;;;6.30;99.90;;;;;;5011900;28;20041;-47
2021/11/03 04:19:51;;;;;;;126.95;28.45;;;6.20;99.90;;;;;;5023287;28;20090;-48
2021/11/03 04:22:17;;;;;;;77.22;27.10;;;6.20;99.90;;;;;;5014845;28;20124;-47
2021/11/03 04:24:43;;;;;;;102.70;29.10;;;6.20;99.90;;;;;;5009417;28;20030;-48
2021/11/03 04:27:08;;;;;;;88.40;27.17;;;6.20;99.90;;;;;;5018447;28;20044;-47
2021/11/03 04:29:34;;;;;;;165.35;27.83;;;6.20;99.90;;;;;;5018939;28;20038;-48
2021/11/03 04:32:00;;;;;;;110.97;27.00;;;6.30;99.90;;;;;;5025554;28;20071;-47
2021/11/03 04:34:26;;;;;;;169.00;28.05;;;6.20;99.90;;;;;;5024340;28;20402;-47
2021/11/03 04:36:52;;;;;;;191.63;29.90;;;6.10;99.90;;;;;;5018621;28;20509;-47
2021/11/03 04:39:18;;;;;;;134.13;27.85;;;6.00;99.90;;;;;;5017091;28;20119;-49
2021/11/03 04:41:44;;;;;;;93.40;26.95;;;6.00;99.90;;;;;;5021902;28;20048;-47
2021/11/03 04:44:09;;;;;;;177.00;30.75;;;5.90;99.90;;;;;;5017430;28;20033;-50
2021/11/03 04:46:36;;;;;;;142.25;28.67;;;5.80;99.90;;;;;;5021195;28;20569;-49
2021/11/03 04:49:01;;;;;;;115.30;27.67;;;5.80;99.90;;;;;;5017899;28;20044;-49
2021/11/03 04:51:27;;;;;;;217.93;30.70;;;5.80;99.90;;;;;;5015898;28;20116;-47
2021/11/03 04:53:53;;;;;;;65.10;25.77;;;5.80;99.90;;;;;;5011425;28;20095;-51
2021/11/03 04:56:21;;;;;;;127.95;28.10;;;5.80;99.90;;;;;;5022871;28;20037;-49
2021/11/03 04:58:51;;;;;;;122.57;27.65;;;5.80;99.90;;;;;;5011330;28;20041;-49
2021/11/03 05:01:20;;;;;;;107.78;27.67;;;5.80;99.90;;;;;;5024338;28;20064;-51
2021/11/03 05:03:46;;;;;;;83.68;28.40;;;5.80;99.90;;;;;;5017063;28;20104;-48
2021/11/03 05:06:13;;;;;;;114.95;28.48;;;5.80;99.90;;;;;;5013631;28;20034;-51
2021/11/03 05:08:38;;;;;;;143.93;30.35;;;5.80;99.90;;;;;;5023568;28;20042;-52
2021/11/03 05:11:04;;;;;;;140.82;29.50;;;5.80;99.90;;;;;;5017084;28;20041;-48
2021/11/03 05:13:29;;;;;;;95.15;29.30;;;5.90;99.90;;;;;;5020550;28;20046;-51
2021/11/03 05:15:55;;;;;;;126.55;30.45;;;5.80;99.90;;;;;;5011194;28;20699;-49
2021/11/03 05:18:21;;;;;;;94.68;29.10;;;5.70;99.90;;;;;;5020972;28;20122;-49
2021/11/03 05:20:46;;;;;;;123.80;30.13;;;5.80;99.90;;;;;;5012673;28;20186;-49
2021/11/03 05:23:12;;;;;;;121.53;29.77;;;5.80;99.90;;;;;;5013318;28;20120;-49
2021/11/03 05:25:38;;;;;;;143.73;32.63;;;5.80;99.90;;;;;;5013960;28;20049;-48
2021/11/03 05:28:05;;;;;;;137.80;29.60;;;5.80;99.90;;;;;;5020570;28;20486;-50
2021/11/03 05:30:31;;;;;;;165.15;30.00;;;5.80;99.90;;;;;;5014164;28;20147;-49
2021/11/03 05:32:58;;;;;;;374.92;34.60;;;5.80;99.90;;;;;;5013309;28;20061;-49
2021/11/03 05:35:24;;;;;;;135.90;29.48;;;5.70;99.90;;;;;;5012014;28;20124;-47
2021/11/03 05:37:51;;;;;;;125.47;30.30;;;5.60;99.90;;;;;;5020252;28;20037;-48
2021/11/03 05:40:20;;;;;;;151.13;29.65;;;5.60;99.90;;;;;;5009551;28;20074;-52
2021/11/03 05:42:46;;;;;;;159.75;29.63;;;5.70;99.90;;;;;;5010323;28;20521;-48
2021/11/03 05:45:13;;;;;;;147.98;28.42;;;5.60;99.90;;;;;;5014573;28;20038;-49
2021/11/03 05:47:39;;;;;;;113.53;29.55;;;5.60;99.90;;;;;;5019865;28;20048;-49
2021/11/03 05:50:07;;;;;;;123.05;30.30;;;5.60;99.90;;;;;;5016242;28;20033;-51
2021/11/03 05:52:32;;;;;;;250.80;30.17;;;5.60;99.90;;;;;;5010470;28;20046;-49
2021/11/03 05:54:58;;;;;;;174.50;29.48;;;5.70;99.90;;;;;;5013795;28;20482;-47
2021/11/03 05:57:31;;;;;;;258.08;31.92;;;5.60;99.90;;;;;;5008104;28;20129;-48
2021/11/03 05:59:58;;;;;;;52.15;27.08;;;5.60;99.90;;;;;;5002714;28;20112;-49
2021/11/03 06:02:25;;;;;;;87.70;28.90;;;5.50;99.90;;;;;;5015470;28;20038;-47
2021/11/03 06:04:50;;;;;;;170.52;30.40;;;5.50;99.90;;;;;;5022815;28;20382;-48
2021/11/03 06:07:18;;;;;;;237.88;32.20;;;5.50;99.90;;;;;;5003959;28;20038;-48
2021/11/03 06:09:44;;;;;;;128.23;28.75;;;5.60;99.90;;;;;;5016627;28;20445;-47
2021/11/03 06:14:37;;;;;;;157.05;29.55;;;5.60;99.90;;;;;;4988493;28;20102;-47
2021/11/03 06:17:03;;;;;;;214.05;31.10;;;5.60;99.90;;;;;;4991326;28;20034;-50
2021/11/03 06:19:29;;;;;;;173.10;32.95;;;5.60;99.90;;;;;;4996482;28;20038;-50
2021/11/03 06:21:54;;;;;;;132.32;32.83;;;5.60;99.90;;;;;;5000030;28;20034;-50
2021/11/03 06:24:21;;;;;;;147.55;31.75;;;5.60;99.90;;;;;;4993491;28;20513;-52
2021/11/03 06:26:46;;;;;;;168.98;30.88;;;5.60;99.90;;;;;;4991710;28;20057;-50
2021/11/03 06:29:12;;;;;;;163.23;30.95;;;5.70;99.90;;;;;;4993973;28;20050;-50
2021/11/03 06:31:38;;;;;;;138.40;31.40;;;5.70;99.90;;;;;;4994055;28;20049;-50
2021/11/03 06:34:05;;;;;;;116.20;30.00;;;5.60;99.90;;;;;;4994312;28;20042;-50
2021/11/03 06:36:31;;;;;;;146.82;32.65;;;5.60;99.90;;;;;;4990769;28;20038;-50
2021/11/03 06:38:58;;;;;;;160.93;32.30;;;5.60;99.90;;;;;;4991884;28;20344;-50
2021/11/03 06:41:23;;;;;;;128.93;33.22;;;5.60;99.90;;;;;;4992431;28;20093;-48
2021/11/03 06:43:49;;;;;;;137.65;31.83;;;5.60;99.90;;;;;;4987817;28;20474;-47
2021/11/03 06:46:15;;;;;;;101.88;29.67;;;5.60;99.90;;;;;;4993132;28;20034;-49
2021/11/03 06:48:40;;;;;;;167.30;31.45;;;5.60;99.90;;;;;;4993441;28;20030;-53
2021/11/03 06:51:06;;;;;;;72.25;28.90;;;5.70;99.90;;;;;;4992533;28;20042;-49
2021/11/03 06:53:33;;;;;;;164.23;34.40;;;5.70;99.90;;;;;;4968628;28;20129;-51
2021/11/03 06:55:59;;;;;;;152.40;32.65;;;5.60;99.90;;;;;;4993442;28;20093;-51
2021/11/03 06:58:28;;;;;;;199.75;33.63;;;5.70;99.90;;;;;;4968012;28;20086;-53
2021/11/03 07:00:54;;;;;;;178.40;33.10;;;5.70;99.90;;;;;;4993983;28;20034;-52
2021/11/03 07:03:22;;;;;;;233.95;33.67;;;5.70;99.90;;;;;;4993468;28;20097;-50
2021/11/03 07:05:48;;;;;;;145.68;32.20;;;5.70;99.90;;;;;;4988690;28;20054;-52
2021/11/03 07:08:16;;;;;;;133.10;32.47;;;5.60;99.90;;;;;;4991362;28;20129;-49
2021/11/03 07:10:45;;;;;;;117.03;32.03;;;5.70;99.90;;;;;;4991506;28;20034;-50
2021/11/03 07:13:11;;;;;;;137.15;32.05;;;5.70;99.90;;;;;;4950864;28;20031;-52
2021/11/03 07:15:38;;;;;;;222.75;35.33;;;5.70;99.90;;;;;;4985400;28;20030;-49
2021/11/03 07:18:05;;;;;;;81.72;30.20;;;5.70;99.90;;;;;;4985353;28;20031;-51
2021/11/03 07:20:31;;;;;;;83.25;32.30;;;5.70;99.90;;;;;;4984073;28;20043;-55
2021/11/03 07:22:57;;;;;;;137.98;32.28;;;5.80;99.90;;;;;;4987718;28;20039;-55
2021/11/03 07:25:24;;;;;;;111.60;32.08;;;5.70;99.90;;;;;;4989374;28;20061;-54
2021/11/03 07:27:51;;;;;;;58.63;30.50;;;5.80;99.90;;;;;;4991600;28;20043;-54
2021/11/03 07:30:23;;;;;;;91.57;33.45;;;5.80;99.90;;;;;;4975252;28;20058;-51
2021/11/03 07:32:49;;;;;;;121.35;29.85;;;5.90;99.90;;;;;;4992452;28;20034;-54
2021/11/03 07:35:15;;;;;;;133.65;32.15;;;5.90;99.90;;;;;;4983865;28;20445;-52
2021/11/03 07:37:41;;;;;;;124.13;30.02;;;5.90;99.90;;;;;;4992777;28;20074;-54
2021/11/03 07:40:11;;;;;;;162.45;31.27;;;5.90;99.90;;;;;;4988118;28;20565;-54
2021/11/03 07:42:36;;;;;;;137.50;30.58;;;5.90;99.90;;;;;;4986195;28;20046;-55
2021/11/03 07:45:04;;;;;;;94.43;32.05;;;5.90;99.90;;;;;;4983402;28;20034;-55
2021/11/03 07:47:30;;;;;;;108.72;30.65;;;5.90;99.90;;;;;;4979692;28;20391;-55
2021/11/03 07:49:55;;;;;;;123.70;32.08;;;5.90;99.90;;;;;;4980166;28;20045;-55
2021/11/03 07:52:21;;;;;;;100.18;29.38;;;5.90;99.90;;;;;;4984945;28;20129;-57
2021/11/03 07:54:47;;;;;;;77.50;28.17;;;5.90;99.90;;;;;;4980959;28;20054;-57
2021/11/03 07:57:12;;;;;;;68.60;28.60;;;5.90;99.90;;;;;;4977952;28;20038;-55
2021/11/03 07:59:38;;;;;;;103.05;30.52;;;5.90;99.90;;;;;;4980205;28;20039;-52
2021/11/03 08:02:04;;;;;;;113.97;31.77;;;5.90;99.90;;;;;;4979812;28;20065;-52
2021/11/03 08:04:31;;;;;;;95.03;29.20;;;5.90;99.90;;;;;;4962335;28;20057;-52
2021/11/03 08:06:56;;;;;;;122.90;29.63;;;5.90;99.90;;;;;;4982664;28;20042;-54
2021/11/03 08:09:22;;;;;;;117.28;30.98;;;5.90;99.90;;;;;;4981513;28;20046;-52
2021/11/03 08:11:53;;;;;;;94.78;29.40;;;5.90;99.90;;;;;;4979282;28;20437;-53
2021/11/03 08:14:29;;;;;;;78.60;28.98;;;5.90;99.90;;;;;;4988636;28;20488;-52
2021/11/03 08:17:02;;;;;;;98.05;29.13;;;5.90;99.90;;;;;;4987664;28;20284;-52
2021/11/03 08:19:38;;;;;;;71.28;28.20;;;6.00;99.90;;;;;;4987913;28;20092;-49
2021/11/03 08:22:05;;;;;;;87.60;29.10;;;5.90;99.90;;;;;;4983611;28;20041;-49
2021/11/03 08:24:30;;;;;;;157.80;31.33;;;5.90;99.90;;;;;;4987486;28;20038;-53
2021/11/03 08:26:56;;;;;;;131.85;31.05;;;6.00;99.90;;;;;;4983718;28;20038;-54
2021/11/03 08:29:23;;;;;;;113.63;28.33;;;6.00;99.90;;;;;;4986965;28;20508;-55
2021/11/03 08:31:52;;;;;;;91.63;26.92;;;6.00;99.90;;;;;;4986558;28;20132;-55
2021/11/03 08:34:18;;;;;;;124.22;28.10;;;6.00;99.90;;;;;;4986573;28;20398;-55
2021/11/03 08:36:45;;;;;;;96.32;27.77;;;6.00;99.90;;;;;;4985762;28;20038;-57
2021/11/03 08:39:11;;;;;;;101.30;26.83;;;6.00;99.90;;;;;;4980250;28;20035;-57
2021/11/03 08:41:37;;;;;;;71.95;26.73;;;6.00;99.90;;;;;;4983538;28;20041;-55
2021/11/03 08:44:04;;;;;;;112.50;26.85;;;5.90;99.90;;;;;;4981510;28;20114;-55
2021/11/03 08:46:30;;;;;;;86.18;25.73;;;6.00;99.90;;;;;;4985223;28;20038;-55
2021/11/03 08:48:57;;;;;;;79.20;24.50;;;6.00;99.90;;;;;;4981941;28;20057;-55
2021/11/03 08:51:25;;;;;;;88.65;26.80;;;6.00;99.90;;;;;;4980576;28;20038;-56
2021/11/03 08:53:50;;;;;;;106.50;25.98;;;6.00;99.90;;;;;;4978185;28;20130;-55
2021/11/03 08:56:16;;;;;;;135.25;26.20;;;6.00;99.90;;;;;;4986316;28;20573;-55
2021/11/03 08:58:42;;;;;;;78.85;25.17;;;6.00;99.90;;;;;;4949001;28;20094;-55
2021/11/03 09:01:15;;;;;;;91.60;26.70;;;5.90;99.90;;;;;;4994524;28;20098;-53
2021/11/03 09:03:41;;;;;;;85.68;25.00;;;6.00;99.90;;;;;;4967151;28;20084;-56
2021/11/03 09:06:07;;;;;;;69.57;22.92;;;6.00;99.90;;;;;;4981666;28;20074;-53
2021/11/03 09:08:35;;;;;;;107.15;25.13;;;6.00;99.90;;;;;;4981106;28;20039;-53
2021/11/03 09:11:02;;;;;;;103.18;25.92;;;6.00;99.90;;;;;;4980872;28;20104;-55
2021/11/03 09:13:30;;;;;;;85.55;23.85;;;6.10;99.90;;;;;;4984714;28;20042;-54
2021/11/03 09:15:57;;;;;;;82.82;22.80;;;6.00;99.90;;;;;;4974104;28;20031;-55
2021/11/03 09:18:23;;;;;;;123.53;25.23;;;6.00;99.90;;;;;;4953731;28;20714;-53
2021/11/03 09:20:51;;;;;;;98.22;24.55;;;6.00;99.90;;;;;;4982258;28;20515;-53
2021/11/03 09:23:18;;;;;;;190.07;25.67;;;6.00;99.90;;;;;;4984737;28;20050;-54
2021/11/03 09:25:45;;;;;;;88.55;22.42;;;6.10;99.90;;;;;;4984781;28;20215;-52
2021/11/03 09:28:11;;;;;;;65.00;23.58;;;6.10;99.90;;;;;;4986390;28;20121;-55
2021/11/03 09:30:37;;;;;;;106.38;25.10;;;6.10;99.90;;;;;;4983387;28;20132;-53
2021/11/03 09:33:06;;;;;;;97.78;24.35;;;6.20;99.90;;;;;;4988533;28;20129;-53
2021/11/03 09:35:36;;;;;;;72.20;22.48;;;6.10;99.90;;;;;;4984543;28;20042;-52
2021/11/03 09:38:02;;;;;;;62.85;22.23;;;6.20;99.90;;;;;;4985326;28;20444;-53
2021/11/03 09:40:34;;;;;;;72.28;23.17;;;6.20;99.90;;;;;;4991518;28;20034;-53
2021/11/03 09:43:40;;;;;;;44.58;22.58;;;6.20;99.90;;;;;;4985201;28;20038;-53
2021/11/03 09:46:29;;;;;;;45.30;20.85;;;6.30;99.90;;;;;;4996316;28;20042;-54
2021/11/03 09:49:13;;;;;;;58.28;23.05;;;6.30;99.90;;;;;;4996173;28;20034;-51
2021/11/03 09:51:44;;;;;;;43.95;23.23;;;6.30;99.90;;;;;;4987946;28;20039;-54
2021/11/03 09:54:22;;;;;;;58.60;23.75;;;6.40;99.90;;;;;;4994771;28;20045;-54
2021/11/03 09:57:40;;;;;;;44.80;20.00;;;6.40;99.90;;;;;;4994198;28;20038;-55
2021/11/03 10:00:33;;;;;;;66.00;22.95;;;6.40;99.90;;;;;;4974553;28;20058;-54
2021/11/03 10:03:10;;;;;;;44.13;22.27;;;6.30;99.90;;;;;;4990726;28;20042;-53
2021/11/03 10:05:54;;;;;;;79.40;24.13;;;6.30;99.90;;;;;;4985808;28;20046;-49
2021/11/03 10:08:24;;;;;;;55.17;22.92;;;6.30;99.90;;;;;;4988887;28;20046;-54
2021/11/03 10:10:57;;;;;;;156.45;24.38;;;6.30;99.90;;;;;;4988146;28;20030;-50
2021/11/03 10:13:25;;;;;;;44.95;22.83;;;6.40;99.90;;;;;;4973484;28;20043;-51
2021/11/03 10:16:02;;;;;;;52.97;22.80;;;6.40;99.90;;;;;;4980929;28;20039;-53
2021/11/03 10:18:32;;;;;;;65.15;24.92;;;6.40;99.90;;;;;;4991034;28;20403;-52
2021/11/03 10:21:19;;;;;;;56.25;24.95;;;6.40;99.90;;;;;;4990228;28;20034;-51
2021/11/03 10:23:58;;;;;;;54.60;24.13;;;6.40;99.90;;;;;;4987541;28;20046;-53
2021/11/03 10:26:31;;;;;;;50.17;26.05;;;6.40;99.90;;;;;;4988460;28;20042;-53
2021/11/03 10:29:32;;;;;;;65.53;24.38;;;6.50;99.90;;;;;;4992017;28;20038;-52
2021/11/03 10:32:03;;;;;;;42.60;21.05;;;6.60;99.90;;;;;;4928553;28;20149;-50
2021/11/03 10:34:40;;;;;;;62.70;21.60;;;6.60;99.90;;;;;;4968481;28;20038;-53
2021/11/03 10:37:25;;;;;;;62.47;22.17;;;6.70;99.90;;;;;;4985782;28;20046;-50
2021/11/03 10:39:59;;;;;;;49.90;22.55;;;6.60;99.90;;;;;;4989503;28;20041;-53
2021/11/03 10:42:28;;;;;;;44.65;23.90;;;6.60;99.90;;;;;;4992743;28;20042;-53
2021/11/03 10:45:15;;;;;;;48.97;24.23;;;6.60;99.90;;;;;;4986167;28;20050;-51
2021/11/03 10:47:42;;;;;;;63.20;28.30;;;6.50;99.90;;;;;;4982613;28;20041;-55
2021/11/03 10:50:22;;;;;;;44.97;26.13;;;6.50;99.90;;;;;;4986734;28;20042;-54
2021/11/03 10:52:55;;;;;;;52.72;27.42;;;6.50;99.90;;;;;;4987800;28;20051;-54
2021/11/03 10:55:25;;;;;;;;;;;6.70;99.90;;;;;;4986060;28;20038;-55
2021/11/03 10:58:23;;;;;;;89.32;24.38;;;6.80;99.90;;;;;;4983280;28;19924;-52
2021/11/03 11:01:02;;;;;;;54.10;24.88;;;6.70;99.90;;;;;;4956346;28;20481;-50
2021/11/03 11:03:37;;;;;;;76.75;26.60;;;6.70;99.90;;;;;;4984350;28;20050;-51
2021/11/03 11:06:19;;;;;;;49.60;25.00;;;6.70;99.90;;;;;;4977134;28;20081;-52
2021/11/03 11:08:51;;;;;;;47.75;25.20;;;6.70;99.90;;;;;;4977172;28;20050;-50
2021/11/03 11:11:19;;;;;;;49.08;25.58;;;6.80;99.90;;;;;;4972515;28;20502;-53
2021/11/03 11:13:52;;;;;;;49.35;24.63;;;6.80;99.90;;;;;;4986784;28;20073;-52
2021/11/03 11:16:44;;;;;;;43.15;24.50;;;6.80;99.90;;;;;;4986161;28;20031;-54
2021/11/03 11:19:12;;;;;;;48.33;26.23;;;6.90;99.90;;;;;;4991665;28;20549;-50
2021/11/03 11:21:46;;;;;;;41.83;23.70;;;6.90;99.90;;;;;;4957727;28;20039;-53
2021/11/03 11:24:35;;;;;;;49.05;25.80;;;6.90;99.90;;;;;;4989670;28;20038;-50
2021/11/03 11:27:19;;;;;;;36.58;23.17;;;6.90;99.90;;;;;;4989768;28;20065;-51
2021/11/03 11:30:10;;;;;;;41.30;23.50;;;6.90;99.90;;;;;;4974864;28;20040;-53
2021/11/03 11:32:58;;;;;;;41.22;23.85;;;7.00;99.90;;;;;;4986943;28;20043;-50
2021/11/03 11:35:32;;;;;;;37.42;22.48;;;7.00;99.90;;;;;;4989194;28;20042;-51
2021/11/03 11:38:13;;;;;;;43.15;25.50;;;7.00;99.90;;;;;;4987001;28;20513;-50
2021/11/03 11:40:44;;;;;;;39.13;23.75;;;7.00;99.90;;;;;;4987338;28;20038;-53
2021/11/03 11:43:32;;;;;;;49.70;23.17;;;7.00;99.90;;;;;;4968315;28;20046;-50
2021/11/03 11:46:11;;;;;;;44.92;23.05;;;7.00;99.90;;;;;;4980438;28;20273;-53
2021/11/03 11:48:40;;;;;;;44.72;23.60;;;7.00;99.90;;;;;;4985776;28;20405;-52
2021/11/03 11:51:11;;;;;;;47.17;23.58;;;7.00;99.90;;;;;;4975898;28;20339;-52
2021/11/03 11:53:48;;;;;;;57.75;24.35;;;7.00;99.90;;;;;;4981075;28;20031;-51
2021/11/03 11:56:30;;;;;;;39.70;22.90;;;6.90;99.90;;;;;;4977428;28;20129;-50
2021/11/03 11:59:20;;;;;;;40.42;23.20;;;6.90;99.90;;;;;;4985650;28;20034;-55
2021/11/03 12:01:48;;;;;;;44.92;23.55;;;6.90;99.90;;;;;;4980765;28;20034;-53
2021/11/03 12:04:29;;;;;;;42.60;24.02;;;6.90;99.90;;;;;;4980806;28;20038;-53
2021/11/03 12:06:55;;;;;;;38.63;23.83;;;6.90;99.90;;;;;;4975421;28;20138;-50
2021/11/03 12:09:35;;;;;;;45.20;24.80;;;6.90;99.90;;;;;;4964246;28;20090;-51
2021/11/03 12:12:21;;;;;;;43.85;24.08;;;7.00;99.90;;;;;;4977732;28;20049;-51
2021/11/03 12:14:57;;;;;;;40.13;22.50;;;7.00;99.90;;;;;;4979310;28;20097;-53
2021/11/03 12:17:50;;;;;;;37.20;23.02;;;7.10;99.90;;;;;;4977623;28;20039;-50
2021/11/03 12:20:25;;;;;;;43.05;23.77;;;7.10;99.90;;;;;;4982110;28;20569;-51
2021/11/03 12:22:57;;;;;;;40.00;23.92;;;7.10;99.90;;;;;;4981015;28;20506;-49
2021/11/03 12:25:22;;;;;;;36.05;22.85;;;7.20;99.90;;;;;;4978192;28;20499;-53
2021/11/03 12:27:53;;;;;;;40.92;23.20;;;7.20;99.90;;;;;;4985258;28;20038;-50
2021/11/03 12:30:32;;;;;;;43.90;24.55;;;7.30;99.90;;;;;;4982780;23;20043;-52
2021/11/03 12:33:03;;;;;;;34.83;22.77;;;7.30;99.90;;;;;;4966555;28;20482;-53
2021/11/03 12:35:33;;;;;;;39.28;23.60;;;7.30;99.90;;;;;;4961544;28;20528;-55
2021/11/03 12:38:22;;;;;;;35.45;22.98;;;7.30;99.90;;;;;;4973093;28;20039;-50
2021/11/03 12:40:49;;;;;;;42.42;23.75;;;7.30;99.90;;;;;;4977682;28;20070;-50
2021/11/03 12:43:24;;;;;;;42.40;24.25;;;7.40;99.90;;;;;;4983756;28;20837;-51
2021/11/03 12:45:53;;;;;;;40.33;23.52;;;7.30;99.90;;;;;;4983006;28;20118;-51
2021/11/03 12:48:24;;;;;;;34.42;22.30;;;7.30;99.90;;;;;;4977059;28;20601;-51
2021/11/03 12:50:50;;;;;;;38.42;23.33;;;7.30;99.90;;;;;;4987584;28;20038;-53